Nearby METAR Reports

 

KIAG - Niagara Falls, New York, USA
Distance from station: W 12mi, 20km
Updated: 07/18/2019 3:03pm
Mostly cloudy
Mostly cloudy
 Wind from NNW
Wind: NNW 10 mph , 17 km/h
Temperature: 82°F , 28°C
Heat Index: 86°F , 30°C
Dew Point: 70°F , 21°C
Humidity: 66%
Barometer: 1013.5 hPa
Clouds: Mostly cloudy
Visibility: 10 miles , 16 km
Cloud details: Partly cloudy 2500 ft
Mostly cloudy 3100 ft
2019/07/18 19:03 KIAG 181903Z 33009KT 10SM SCT025 BKN031 28/21 A2993 RMK AO2 T02830211
KBUF - Buffalo/Cheektow, New York, USA
Distance from station: S 13mi, 21km
Updated: 07/18/2019 2:54pm
Partly cloudy
Partly cloudy
 Wind from SSW
Wind: SSW 7 mph , 11 km/h
Temperature: 84°F , 29°C
Heat Index: 86°F , 30°C
Dew Point: 66°F , 19°C
Humidity: 55%
Barometer: 1013.5 hPa
Clouds: Partly cloudy
Visibility: 10 miles , 16 km
Cloud details: Few Clouds 2800 ft
Few Clouds 3700 ft
Partly cloudy 22000 ft
2019/07/18 18:54 KBUF 181854Z 20006KT 10SM FEW028 FEW037 SCT220 29/19 A2993 RMK AO2 SLP130 T02890194
 
KROC - Rochester, New York, USA
Distance from station: E 51mi, 82km
Updated: 07/18/2019 2:54pm
Mostly cloudy
Mostly cloudy
 Wind from WNW
Wind: WNW 6 mph , 9 km/h
Temperature: 82°F , 28°C
Heat Index: 85°F , 29°C
Dew Point: 68°F , 20°C
Humidity: 62%
Barometer: 1013.5 hPa
Clouds: Mostly cloudy
Visibility: 10 miles , 16 km
Cloud details: Mostly cloudy 3800 ft
Mostly cloudy 18000 ft
2019/07/18 18:54 KROC 181854Z 29005KT 10SM BKN038 BKN180 28/20 A2993 RMK AO2 SLP131 T02830200
CYSN - St. Catharines A, Ontario, Canada
Distance from station: WNW 25mi, 40km
Updated: 07/18/2019 3:00pm
Mostly cloudy
Mostly cloudy
 Wind from NNW
Wind: NNW 7 mph , 11 km/h
Temperature: 81°F , 27°C
Heat Index: 88°F , 31°C
Dew Point: 77°F , 25°C
Humidity: 89%
Barometer: 1013.2 hPa
Clouds: Mostly cloudy
Visibility: 12 miles , 19 km
Cloud details: Partly cloudy 1100 ft
Mostly cloudy 3000 ft
2019/07/18 19:00 CYSN 181900Z 34006KT 300V010 12SM SCT011 BKN030 27/25 A2992 RMK CF3SC2 SLP133 DENSITY ALT 1800FT
 
KOLE - Olean, New York, USA
Distance from station: SSE 63mi, 102km
Updated: 07/18/2019 3:35pm
Partly cloudy
Partly cloudy
 Wind from NW
Wind: NW 6 mph , 9 km/h
Temperature: 79°F , 26°C
Dew Point: 68°F , 20°C
Humidity: 70%
Barometer: 1016.3 hPa
Clouds: Partly cloudy
Visibility: 10 miles , 16 km
Cloud details: Partly cloudy 4200 ft
Partly cloudy 4900 ft
2019/07/18 19:35 KOLE 181935Z AUTO 31005KT 10SM SCT042 SCT049 26/20 A3001 RMK AO2
KJHW - Jamestown, New York, USA
Distance from station: SSW 74mi, 119km
Updated: 07/18/2019 3:35pm
Mostly cloudy
Mostly cloudy
 Wind from NW
Wind: NW 13 mph , 20 km/h
Temperature: 79°F , 26°C
Dew Point: 70°F , 21°C
Humidity: 74%
Barometer: 1015.6 hPa
Clouds: Mostly cloudy
Visibility: 10 miles , 16 km
Cloud details: Partly cloudy 2300 ft
Mostly cloudy 2800 ft
2019/07/18 19:35 KJHW 181935Z AUTO 32011KT 10SM SCT023 BKN028 26/21 A2999 RMK AO2
 
CWWZ - Port Weller (mar, Ontario, Canada
Distance from station: WNW 28mi, 45km
Updated: 07/18/2019 3:00pm

 Wind from N
Wind: N 7 mph , 11 km/h
Temperature: 75°F , 24°C
Dew Point: 72°F , 22°C
Humidity: 89%
2019/07/18 19:00 CWWZ 181900Z AUTO 01006KT 24/22 RMK AO1 SLP135 T02360215 53005
CWPC - Port Colborne(Au, Ontario, Canada
Distance from station: WSW 33mi, 53km
Updated: 07/18/2019 3:00pm

 Wind from WSW
Wind: WSW 12 mph , 19 km/h
Temperature: 73°F , 23°C
Dew Point: 70°F , 21°C
Humidity: 89%
2019/07/18 19:00 CWPC 181900Z AUTO 25010KT 23/21 RMK AO1 SLP138 T02300210 53002
 
CXVN - Vineland (au8), Ontario, Canada
Distance from station: W 36mi, 58km
Updated: 07/18/2019 3:00pm

 Wind from NE
Wind: NE 6 mph , 9 km/h
Temperature: 75°F , 24°C
Dew Point: 73°F , 23°C
Humidity: 94%
2019/07/18 19:00 CXVN 181900Z AUTO 04005KT 24/23 RMK AO1 SLP127 T02430230 53005
CYTZ - Toronto Il Vor, Ontario, Canada
Distance from station: NW 50mi, 81km
Updated: 07/18/2019 3:00pm
Clear
Clear
 Wind from ESE
Wind: ESE 7 mph , 11 km/h
Temperature: 77°F , 25°C
Dew Point: 72°F , 22°C
Humidity: 83%
Barometer: 1013.2 hPa
Clouds: Clear
Visibility: 9 miles , 14 km
2019/07/18 19:00 CYTZ 181900Z AUTO 12006KT 9SM CLR 25/22 A2992 RMK SLP133 DENSITY ALT 1400FT
 
CXTO - Toronto City, Ontario, Canada
Distance from station: NW 52mi, 84km
Updated: 07/18/2019 3:00pm

 
Temperature: 81°F , 27°C
Heat Index: 83°F , 28°C
Dew Point: 64°F , 18°C
Humidity: 58%
2019/07/18 19:00 CXTO 181900Z AUTO 27/18 RMK AO1 SLP133 T02740179 57004
KDKK - Dunkirk, New York, USA
Distance from station: SW 52mi, 84km
Updated: 07/18/2019 2:53pm
Few Clouds
Few Clouds
 Wind from NNW
Wind: NNW 8 mph , 13 km/h
Temperature: 79°F , 26°C
Dew Point: 72°F , 22°C
Humidity: 79%
Barometer: 1014.6 hPa
Clouds: Few Clouds
Visibility: 10 miles , 16 km
Cloud details: Few Clouds 1000 ft
2019/07/18 18:53 KDKK 181853Z AUTO 33007KT 280V340 10SM FEW010 26/22 A2996 RMK AO2 SLP142 T02610217 $
 
CYOO - Oshawa, Ontario, Canada
Distance from station: N 56mi, 90km
Updated: 07/18/2019 3:00pm
Overcast
Overcast
 Wind from varies
Wind: varies 3 mph , 6 km/h
Temperature: 79°F , 26°C
Dew Point: 68°F , 20°C
Humidity: 70%
Barometer: 1013.5 hPa
Clouds: Overcast
Visibility: 9 miles , 14 km
Cloud details: Overcast 2400 ft
2019/07/18 19:00 CYOO 181900Z AUTO VRB03KT 9SM OVC024 26/20 A2993 RMK SLP134 DENSITY ALT 1800FT
CWWB - Burlington Piers, Ontario, Canada
Distance from station: WNW 56mi, 91km
Updated: 07/18/2019 3:00pm

 Wind from E
Wind: E 8 mph , 13 km/h
Temperature: 72°F , 22°C
Dew Point: 70°F , 21°C
Humidity: 94%
2019/07/18 19:00 CWWB 181900Z AUTO 09007KT 22/21 RMK AO1 SLP129 T02210209 56004
 
CYYZ - Toronto/Pearson, Ontario, Canada
Distance from station: NW 60mi, 96km
Updated: 07/18/2019 3:00pm
Partly cloudy
Partly cloudy
 Wind from S
Wind: S 12 mph , 19 km/h
Temperature: 82°F , 28°C
Heat Index: 86°F , 30°C
Dew Point: 70°F , 21°C
Humidity: 66%
Barometer: 1013.2 hPa
Clouds: Partly cloudy
Visibility: 15 miles , 24 km
Cloud details: Partly cloudy 3000 ft
Partly cloudy 18000 ft
2019/07/18 19:00 CYYZ 181900Z 18010KT 15SM SCT030 SCT180 28/21 A2992 RMK CU4AC1 AC TR SLP130 DENSITY ALT 2200FT
CYKZ - Toronto Buttonvi, Ontario, Canada
Distance from station: NW 62mi, 99km
Updated: 01/03/2019 4:00am
NOT Current
Partly cloudy
Partly cloudy
 Wind from WSW
Wind: WSW 5 mph , 7 km/h
Temperature: 27°F , -3°C
Wind Chill: 21°F , -6°C
Dew Point: 23°F , -5°C
Humidity: 86%
Barometer: 1010.8 hPa
Clouds: Partly cloudy
Visibility: 15 miles , 24 km
Cloud details: Partly cloudy 4000 ft
2019/01/03 09:00 CYKZ 030900Z 25004KT 15SM SCT040 M03/M05 A2985 RMK SC3 LAST STFD OBS FAREWELL SLP118
 
CXHM - Hamilton Rbg Cs, Ontario, Canada
Distance from station: W 62mi, 100km
Updated: 07/18/2019 3:00pm

 Wind from W
Wind: W 3 mph , 6 km/h
2019/07/18 19:00 CXHM 181900Z AUTO 26003KT RMK AO1 57005
KDSV - Dansville, New York, USA
Distance from station: SE 62mi, 100km
Updated: 07/18/2019 2:54pm
Clear
Clear
 Wind from NNW
Wind: NNW 9 mph , 15 km/h
Temperature: 84°F , 29°C
Heat Index: 89°F , 32°C
Dew Point: 72°F , 22°C
Humidity: 66%
Barometer: 1013.2 hPa
Clouds: Clear
Visibility: 10 miles , 16 km
2019/07/18 18:54 KDSV 181854Z AUTO 34008KT 10SM CLR 29/22 A2992 RMK AO2 SLP137 T02890222
 
CYHM - Hamilton Airport, Ontario, Canada
Distance from station: W 63mi, 101km
Updated: 07/18/2019 3:00pm
Mostly cloudy
Mostly cloudy
 Wind from WSW
Wind: WSW 7 mph , 11 km/h
Temperature: 82°F , 28°C
Heat Index: 86°F , 30°C
Dew Point: 70°F , 21°C
Humidity: 66%
Barometer: 1013.9 hPa
Clouds: Mostly cloudy
Visibility: 15 miles , 24 km
Cloud details: Mostly cloudy 3000 ft
Mostly cloudy 23000 ft
2019/07/18 19:00 CYHM 181900Z 24006KT 220V280 15SM BKN030TCU BKN230 28/21 A2994 RMK TCU6CI1 SLP137 DENSITY ALT 2400FT
CWNC - Cobourg (mars), Ontario, Canada
Distance from station: NNE 63mi, 102km
Updated: 07/18/2019 3:00pm

 Wind from SW
Wind: SW 3 mph , 6 km/h
Temperature: 73°F , 23°C
Dew Point: 68°F , 20°C
Humidity: 83%
2019/07/18 19:00 CWNC 181900Z AUTO 22003KT 23/20 RMK AO1 SLP132 T02260203 53001